sensor_id;sensor_type;location;lat;lon;timestamp;pressure;altitude;pressure_sealevel;temperature;humidity
28683;BME280;15862;43.062;25.626;2022-12-18T00:01:30;100957.81;;;9.90;100.00
28683;BME280;15862;43.062;25.626;2022-12-18T00:03:59;100963.81;;;9.91;100.00
28683;BME280;15862;43.062;25.626;2022-12-18T00:06:26;100969.91;;;9.90;100.00
28683;BME280;15862;43.062;25.626;2022-12-18T00:08:53;100974.06;;;9.92;100.00
28683;BME280;15862;43.062;25.626;2022-12-18T00:11:20;100972.25;;;9.94;100.00
28683;BME280;15862;43.062;25.626;2022-12-18T00:13:46;100970.25;;;9.99;100.00
28683;BME280;15862;43.062;25.626;2022-12-18T00:16:16;100980.69;;;9.98;100.00
28683;BME280;15862;43.062;25.626;2022-12-18T00:18:44;100986.72;;;9.97;100.00
28683;BME280;15862;43.062;25.626;2022-12-18T00:21:11;100977.69;;;9.88;100.00
28683;BME280;15862;43.062;25.626;2022-12-18T00:23:38;100972.16;;;9.81;100.00
28683;BME280;15862;43.062;25.626;2022-12-18T00:26:11;100975.53;;;9.81;100.00
28683;BME280;15862;43.062;25.626;2022-12-18T00:28:36;100989.53;;;9.92;100.00
28683;BME280;15862;43.062;25.626;2022-12-18T00:33:27;100997.94;;;9.81;100.00
28683;BME280;15862;43.062;25.626;2022-12-18T00:35:53;100975.03;;;9.75;100.00
28683;BME280;15862;43.062;25.626;2022-12-18T00:38:18;100987.44;;;9.84;100.00
28683;BME280;15862;43.062;25.626;2022-12-18T00:40:44;100988.69;;;9.92;100.00
28683;BME280;15862;43.062;25.626;2022-12-18T00:43:09;101000.19;;;9.87;100.00
28683;BME280;15862;43.062;25.626;2022-12-18T00:45:35;100995.03;;;9.87;100.00
28683;BME280;15862;43.062;25.626;2022-12-18T00:48:00;100996.34;;;9.78;100.00
28683;BME280;15862;43.062;25.626;2022-12-18T00:50:25;100994.03;;;9.74;100.00
28683;BME280;15862;43.062;25.626;2022-12-18T00:52:51;100998.75;;;9.66;100.00
28683;BME280;15862;43.062;25.626;2022-12-18T00:55:17;101000.09;;;9.73;100.00
28683;BME280;15862;43.062;25.626;2022-12-18T00:57:43;100998.09;;;9.78;100.00
28683;BME280;15862;43.062;25.626;2022-12-18T01:00:12;100995.03;;;9.87;100.00
28683;BME280;15862;43.062;25.626;2022-12-18T01:02:37;100996.84;;;9.85;100.00
28683;BME280;15862;43.062;25.626;2022-12-18T01:05:03;100990.50;;;9.75;100.00
28683;BME280;15862;43.062;25.626;2022-12-18T01:07:29;101001.19;;;9.84;100.00
28683;BME280;15862;43.062;25.626;2022-12-18T01:09:54;101007.94;;;9.87;100.00
28683;BME280;15862;43.062;25.626;2022-12-18T01:12:20;100994.16;;;9.71;100.00
28683;BME280;15862;43.062;25.626;2022-12-18T01:14:45;101011.81;;;9.78;100.00
28683;BME280;15862;43.062;25.626;2022-12-18T01:17:11;101012.50;;;9.82;100.00
28683;BME280;15862;43.062;25.626;2022-12-18T01:19:36;101006.41;;;9.83;100.00
28683;BME280;15862;43.062;25.626;2022-12-18T01:22:02;100993.16;;;9.73;100.00
28683;BME280;15862;43.062;25.626;2022-12-18T01:24:27;101013.91;;;9.87;100.00
28683;BME280;15862;43.062;25.626;2022-12-18T01:26:52;101023.66;;;9.82;100.00
28683;BME280;15862;43.062;25.626;2022-12-18T01:29:18;101027.25;;;9.80;100.00
28683;BME280;15862;43.062;25.626;2022-12-18T01:31:43;101024.28;;;9.70;100.00
28683;BME280;15862;43.062;25.626;2022-12-18T01:34:09;101027.06;;;9.83;100.00
28683;BME280;15862;43.062;25.626;2022-12-18T01:36:37;101027.97;;;9.82;100.00
28683;BME280;15862;43.062;25.626;2022-12-18T01:39:10;101037.31;;;9.84;100.00
28683;BME280;15862;43.062;25.626;2022-12-18T01:41:36;101035.56;;;9.85;100.00
28683;BME280;15862;43.062;25.626;2022-12-18T01:49:49;101027.59;;;9.89;100.00
28683;BME280;15862;43.062;25.626;2022-12-18T01:52:15;101026.06;;;9.85;100.00
28683;BME280;15862;43.062;25.626;2022-12-18T01:54:42;101032.47;;;9.78;100.00
28683;BME280;15862;43.062;25.626;2022-12-18T01:57:07;101040.06;;;9.81;100.00
28683;BME280;15862;43.062;25.626;2022-12-18T01:59:33;101045.13;;;9.83;100.00
28683;BME280;15862;43.062;25.626;2022-12-18T02:01:59;101043.16;;;9.88;100.00
28683;BME280;15862;43.062;25.626;2022-12-18T02:04:26;101048.31;;;9.88;100.00
28683;BME280;15862;43.062;25.626;2022-12-18T02:07:03;101036.31;;;9.87;100.00
28683;BME280;15862;43.062;25.626;2022-12-18T02:09:35;101019.50;;;9.80;100.00
28683;BME280;15862;43.062;25.626;2022-12-18T02:12:15;101040.16;;;9.80;100.00
28683;BME280;15862;43.062;25.626;2022-12-18T02:17:17;101031.06;;;9.73;100.00
28683;BME280;15862;43.062;25.626;2022-12-18T02:20:16;101045.06;;;9.84;100.00
28683;BME280;15862;43.062;25.626;2022-12-18T02:28:11;101052.44;;;9.75;100.00
28683;BME280;15862;43.062;25.626;2022-12-18T02:30:39;101050.69;;;9.75;100.00
28683;BME280;15862;43.062;25.626;2022-12-18T02:33:08;101066.28;;;9.74;100.00
28683;BME280;15862;43.062;25.626;2022-12-18T02:35:36;101072.09;;;9.77;100.00
28683;BME280;15862;43.062;25.626;2022-12-18T02:38:03;101062.47;;;9.81;100.00
28683;BME280;15862;43.062;25.626;2022-12-18T02:40:29;101067.22;;;9.71;100.00
28683;BME280;15862;43.062;25.626;2022-12-18T02:42:55;101072.34;;;9.73;100.00
28683;BME280;15862;43.062;25.626;2022-12-18T02:45:27;101077.19;;;9.62;100.00
28683;BME280;15862;43.062;25.626;2022-12-18T02:47:52;101045.13;;;9.50;100.00
28683;BME280;15862;43.062;25.626;2022-12-18T02:52:54;101063.56;;;9.43;100.00
28683;BME280;15862;43.062;25.626;2022-12-18T03:00:53;101044.16;;;9.02;100.00
28683;BME280;15862;43.062;25.626;2022-12-18T03:06:35;101055.44;;;9.00;100.00
28683;BME280;15862;43.062;25.626;2022-12-18T03:09:07;101063.69;;;8.89;100.00
28683;BME280;15862;43.062;25.626;2022-12-18T03:11:37;101074.84;;;8.90;100.00
28683;BME280;15862;43.062;25.626;2022-12-18T03:14:23;101074.28;;;8.83;100.00
28683;BME280;15862;43.062;25.626;2022-12-18T03:16:53;101081.81;;;8.88;100.00
28683;BME280;15862;43.062;25.626;2022-12-18T03:19:23;101081.50;;;8.94;100.00
28683;BME280;15862;43.062;25.626;2022-12-18T03:21:56;101070.94;;;8.81;100.00
28683;BME280;15862;43.062;25.626;2022-12-18T03:24:24;101089.31;;;8.92;100.00
28683;BME280;15862;43.062;25.626;2022-12-18T03:26:54;101098.44;;;8.99;100.00
28683;BME280;15862;43.062;25.626;2022-12-18T03:29:32;101099.94;;;8.86;100.00
28683;BME280;15862;43.062;25.626;2022-12-18T03:32:05;101093.84;;;8.87;100.00
28683;BME280;15862;43.062;25.626;2022-12-18T03:34:34;101105.53;;;8.94;100.00
28683;BME280;15862;43.062;25.626;2022-12-18T03:37:03;101094.91;;;8.83;100.00
28683;BME280;15862;43.062;25.626;2022-12-18T03:39:30;101125.91;;;8.99;100.00
28683;BME280;15862;43.062;25.626;2022-12-18T03:47:31;101120.09;;;8.95;100.00
28683;BME280;15862;43.062;25.626;2022-12-18T03:52:41;101132.34;;;8.90;100.00
28683;BME280;15862;43.062;25.626;2022-12-18T03:55:09;101138.59;;;9.03;100.00
28683;BME280;15862;43.062;25.626;2022-12-18T03:57:36;101140.84;;;8.92;100.00
28683;BME280;15862;43.062;25.626;2022-12-18T04:00:09;101149.28;;;8.96;100.00
28683;BME280;15862;43.062;25.626;2022-12-18T04:02:37;101147.00;;;8.90;100.00
28683;BME280;15862;43.062;25.626;2022-12-18T04:05:06;101147.00;;;8.90;100.00
28683;BME280;15862;43.062;25.626;2022-12-18T04:07:32;101154.03;;;8.86;100.00
28683;BME280;15862;43.062;25.626;2022-12-18T04:10:00;101162.94;;;8.79;100.00
28683;BME280;15862;43.062;25.626;2022-12-18T04:12:29;101164.38;;;8.85;100.00
28683;BME280;15862;43.062;25.626;2022-12-18T04:14:54;101164.94;;;8.91;100.00
28683;BME280;15862;43.062;25.626;2022-12-18T04:17:20;101177.56;;;8.79;100.00
28683;BME280;15862;43.062;25.626;2022-12-18T04:19:46;101161.47;;;8.55;100.00
28683;BME280;15862;43.062;25.626;2022-12-18T04:22:12;101179.72;;;8.69;100.00
28683;BME280;15862;43.062;25.626;2022-12-18T04:24:37;101178.53;;;8.58;100.00
28683;BME280;15862;43.062;25.626;2022-12-18T04:27:03;101178.53;;;8.58;100.00
28683;BME280;15862;43.062;25.626;2022-12-18T04:29:29;101179.72;;;8.51;100.00
28683;BME280;15862;43.062;25.626;2022-12-18T04:31:54;101180.53;;;8.51;100.00
28683;BME280;15862;43.062;25.626;2022-12-18T04:34:20;101196.47;;;8.59;100.00
28683;BME280;15862;43.062;25.626;2022-12-18T04:36:46;101174.75;;;8.46;100.00
28683;BME280;15862;43.062;25.626;2022-12-18T04:39:11;101194.97;;;8.55;100.00
28683;BME280;15862;43.062;25.626;2022-12-18T04:41:37;101194.69;;;8.61;100.00
28683;BME280;15862;43.062;25.626;2022-12-18T04:44:02;101191.97;;;8.64;100.00
28683;BME280;15862;43.062;25.626;2022-12-18T04:46:28;101196.28;;;8.64;100.00
28683;BME280;15862;43.062;25.626;2022-12-18T04:48:54;101209.72;;;8.70;100.00
28683;BME280;15862;43.062;25.626;2022-12-18T04:51:19;101212.22;;;8.72;100.00
28683;BME280;15862;43.062;25.626;2022-12-18T04:53:44;101218.97;;;8.74;100.00
28683;BME280;15862;43.062;25.626;2022-12-18T04:56:12;101224.97;;;8.75;100.00
28683;BME280;15862;43.062;25.626;2022-12-18T04:58:39;101230.34;;;8.70;100.00
28683;BME280;15862;43.062;25.626;2022-12-18T05:01:06;101218.84;;;8.59;100.00
28683;BME280;15862;43.062;25.626;2022-12-18T05:03:36;101242.31;;;8.71;100.00
28683;BME280;15862;43.062;25.626;2022-12-18T05:06:02;101248.09;;;8.76;100.00
28683;BME280;15862;43.062;25.626;2022-12-18T05:08:27;101255.69;;;8.79;100.00
28683;BME280;15862;43.062;25.626;2022-12-18T05:13:29;101256.66;;;8.77;100.00
28683;BME280;15862;43.062;25.626;2022-12-18T05:15:55;101267.16;;;8.72;100.00
28683;BME280;15862;43.062;25.626;2022-12-18T05:18:21;101266.53;;;8.67;100.00
28683;BME280;15862;43.062;25.626;2022-12-18T05:20:46;101279.31;;;8.69;100.00
28683;BME280;15862;43.062;25.626;2022-12-18T05:23:12;101283.66;;;8.68;100.00
28683;BME280;15862;43.062;25.626;2022-12-18T05:25:38;101286.09;;;8.71;100.00
28683;BME280;15862;43.062;25.626;2022-12-18T05:28:03;101281.19;;;8.65;100.00
28683;BME280;15862;43.062;25.626;2022-12-18T05:30:29;101294.75;;;8.70;100.00
28683;BME280;15862;43.062;25.626;2022-12-18T05:32:54;101298.22;;;8.69;100.00
28683;BME280;15862;43.062;25.626;2022-12-18T05:35:20;101289.59;;;8.70;100.00
28683;BME280;15862;43.062;25.626;2022-12-18T05:37:45;101306.84;;;8.68;100.00
28683;BME280;15862;43.062;25.626;2022-12-18T05:40:11;101312.00;;;8.68;100.00
28683;BME280;15862;43.062;25.626;2022-12-18T05:42:37;101308.91;;;8.60;100.00
28683;BME280;15862;43.062;25.626;2022-12-18T05:45:02;101315.09;;;8.56;100.00
28683;BME280;15862;43.062;25.626;2022-12-18T05:47:28;101312.25;;;8.62;100.00
28683;BME280;15862;43.062;25.626;2022-12-18T05:49:54;101317.25;;;8.65;100.00
28683;BME280;15862;43.062;25.626;2022-12-18T05:52:20;101323.28;;;8.66;100.00
28683;BME280;15862;43.062;25.626;2022-12-18T05:54:45;101326.66;;;8.66;100.00
28683;BME280;15862;43.062;25.626;2022-12-18T05:57:10;101330.13;;;8.65;100.00
28683;BME280;15862;43.062;25.626;2022-12-18T05:59:36;101330.03;;;8.68;100.00
28683;BME280;15862;43.062;25.626;2022-12-18T06:02:01;101338.53;;;8.70;100.00
28683;BME280;15862;43.062;25.626;2022-12-18T06:04:28;101320.75;;;8.64;100.00
28683;BME280;15862;43.062;25.626;2022-12-18T06:06:56;101335.81;;;8.73;100.00
28683;BME280;15862;43.062;25.626;2022-12-18T06:09:21;101341.66;;;8.77;100.00
28683;BME280;15862;43.062;25.626;2022-12-18T06:11:47;101338.13;;;8.79;100.00
28683;BME280;15862;43.062;25.626;2022-12-18T06:14:12;101352.66;;;8.80;100.00
28683;BME280;15862;43.062;25.626;2022-12-18T06:16:38;101344.50;;;8.71;100.00
28683;BME280;15862;43.062;25.626;2022-12-18T06:19:04;101365.03;;;8.72;100.00
28683;BME280;15862;43.062;25.626;2022-12-18T06:21:31;101363.78;;;8.62;100.00
28683;BME280;15862;43.062;25.626;2022-12-18T06:23:57;101362.63;;;8.49;100.00
28683;BME280;15862;43.062;25.626;2022-12-18T06:26:22;101369.03;;;8.39;100.00
28683;BME280;15862;43.062;25.626;2022-12-18T06:28:48;101362.22;;;8.38;100.00
28683;BME280;15862;43.062;25.626;2022-12-18T06:31:13;101357.97;;;8.37;100.00
28683;BME280;15862;43.062;25.626;2022-12-18T06:33:39;101369.34;;;8.32;100.00
28683;BME280;15862;43.062;25.626;2022-12-18T06:36:08;101370.78;;;8.39;100.00
28683;BME280;15862;43.062;25.626;2022-12-18T06:38:35;101388.75;;;8.40;100.00
28683;BME280;15862;43.062;25.626;2022-12-18T06:41:00;101387.31;;;8.53;100.00
28683;BME280;15862;43.062;25.626;2022-12-18T06:43:26;101379.72;;;8.50;100.00
28683;BME280;15862;43.062;25.626;2022-12-18T06:45:57;101402.47;;;8.61;100.00
28683;BME280;15862;43.062;25.626;2022-12-18T06:48:25;101400.09;;;8.56;100.00
28683;BME280;15862;43.062;25.626;2022-12-18T06:50:50;101384.13;;;8.48;100.00
28683;BME280;15862;43.062;25.626;2022-12-18T06:53:15;101397.88;;;8.67;100.00
28683;BME280;15862;43.062;25.626;2022-12-18T06:55:41;101381.47;;;8.70;100.00
28683;BME280;15862;43.062;25.626;2022-12-18T06:58:06;101403.00;;;8.89;100.00
28683;BME280;15862;43.062;25.626;2022-12-18T07:00:32;101403.63;;;8.94;100.00
28683;BME280;15862;43.062;25.626;2022-12-18T07:02:57;101406.63;;;9.03;100.00
28683;BME280;15862;43.062;25.626;2022-12-18T07:05:22;101416.56;;;9.12;100.00
28683;BME280;15862;43.062;25.626;2022-12-18T07:07:48;101423.47;;;9.12;100.00
28683;BME280;15862;43.062;25.626;2022-12-18T07:10:13;101418.75;;;9.21;100.00
28683;BME280;15862;43.062;25.626;2022-12-18T07:12:39;101426.31;;;9.24;100.00
28683;BME280;15862;43.062;25.626;2022-12-18T07:15:04;101429.81;;;9.23;100.00
28683;BME280;15862;43.062;25.626;2022-12-18T07:17:30;101416.28;;;9.18;100.00
28683;BME280;15862;43.062;25.626;2022-12-18T07:19:56;101423.94;;;9.19;100.00
28683;BME280;15862;43.062;25.626;2022-12-18T07:22:21;101430.78;;;9.20;100.00
28683;BME280;15862;43.062;25.626;2022-12-18T07:24:47;101441.16;;;9.19;100.00
28683;BME280;15862;43.062;25.626;2022-12-18T07:27:12;101434.53;;;9.13;100.00
28683;BME280;15862;43.062;25.626;2022-12-18T07:29:38;101437.97;;;9.14;100.00
28683;BME280;15862;43.062;25.626;2022-12-18T07:32:03;101442.00;;;9.19;100.00
28683;BME280;15862;43.062;25.626;2022-12-18T07:34:29;101442.00;;;9.19;100.00
28683;BME280;15862;43.062;25.626;2022-12-18T07:36:54;101446.03;;;9.25;100.00
28683;BME280;15862;43.062;25.626;2022-12-18T07:39:20;101456.88;;;9.33;100.00
28683;BME280;15862;43.062;25.626;2022-12-18T07:41:45;101445.72;;;9.32;100.00
28683;BME280;15862;43.062;25.626;2022-12-18T07:44:33;101442.25;;;9.33;100.00
28683;BME280;15862;43.062;25.626;2022-12-18T07:46:59;101459.97;;;9.41;100.00
28683;BME280;15862;43.062;25.626;2022-12-18T07:49:24;101449.53;;;9.44;100.00
28683;BME280;15862;43.062;25.626;2022-12-18T07:51:49;101452.16;;;9.61;100.00
28683;BME280;15862;43.062;25.626;2022-12-18T07:54:15;101457.03;;;9.67;100.00
28683;BME280;15862;43.062;25.626;2022-12-18T07:56:40;101457.50;;;9.76;100.00
28683;BME280;15862;43.062;25.626;2022-12-18T07:59:06;101447.41;;;9.88;100.00
28683;BME280;15862;43.062;25.626;2022-12-18T08:01:31;101454.66;;;10.00;100.00
28683;BME280;15862;43.062;25.626;2022-12-18T08:03:57;101455.66;;;10.15;100.00
28683;BME280;15862;43.062;25.626;2022-12-18T08:06:22;101464.28;;;10.32;100.00
28683;BME280;15862;43.062;25.626;2022-12-18T08:08:48;101462.97;;;10.42;100.00
28683;BME280;15862;43.062;25.626;2022-12-18T08:11:13;101470.56;;;10.45;100.00
28683;BME280;15862;43.062;25.626;2022-12-18T08:13:39;101465.94;;;10.52;100.00
28683;BME280;15862;43.062;25.626;2022-12-18T08:16:06;101463.81;;;10.60;100.00
28683;BME280;15862;43.062;25.626;2022-12-18T08:18:33;101476.66;;;10.44;100.00
28683;BME280;15862;43.062;25.626;2022-12-18T08:21:23;101447.09;;;10.14;100.00
28683;BME280;15862;43.062;25.626;2022-12-18T08:23:50;101458.31;;;10.32;96.99
28683;BME280;15862;43.062;25.626;2022-12-18T08:26:16;101460.81;;;10.33;94.96
28683;BME280;15862;43.062;25.626;2022-12-18T08:28:42;101454.03;;;10.31;92.95
28683;BME280;15862;43.062;25.626;2022-12-18T08:31:08;101466.44;;;10.24;88.82
28683;BME280;15862;43.062;25.626;2022-12-18T08:33:34;101456.53;;;10.32;89.54
28683;BME280;15862;43.062;25.626;2022-12-18T08:36:00;101463.38;;;9.98;90.27
28683;BME280;15862;43.062;25.626;2022-12-18T08:38:26;101459.16;;;9.95;90.50
28683;BME280;15862;43.062;25.626;2022-12-18T08:41:10;101434.75;;;9.66;88.33
28683;BME280;15862;43.062;25.626;2022-12-18T08:43:36;101462.97;;;9.69;89.68
28683;BME280;15862;43.062;25.626;2022-12-18T08:46:21;101467.03;;;9.74;92.15
28683;BME280;15862;43.062;25.626;2022-12-18T08:48:50;101471.38;;;9.74;90.51
28683;BME280;15862;43.062;25.626;2022-12-18T08:51:16;101469.63;;;9.74;90.64
28683;BME280;15862;43.062;25.626;2022-12-18T08:53:42;101470.31;;;9.78;88.09
28683;BME280;15862;43.062;25.626;2022-12-18T08:56:08;101471.13;;;9.78;85.79
28683;BME280;15862;43.062;25.626;2022-12-18T08:58:33;101462.91;;;9.70;87.05
28683;BME280;15862;43.062;25.626;2022-12-18T09:01:04;101460.06;;;9.76;90.01
28683;BME280;15862;43.062;25.626;2022-12-18T09:03:29;101468.50;;;9.80;86.04
28683;BME280;15862;43.062;25.626;2022-12-18T09:05:55;101449.47;;;9.64;83.11
28683;BME280;15862;43.062;25.626;2022-12-18T09:08:20;101469.53;;;9.76;86.17
28683;BME280;15862;43.062;25.626;2022-12-18T09:10:48;101454.53;;;9.84;84.06
28683;BME280;15862;43.062;25.626;2022-12-18T09:13:14;101444.78;;;9.90;88.02
28683;BME280;15862;43.062;25.626;2022-12-18T09:15:45;101464.97;;;10.00;87.69
28683;BME280;15862;43.062;25.626;2022-12-18T09:18:12;101458.91;;;10.01;81.36
28683;BME280;15862;43.062;25.626;2022-12-18T09:20:38;101453.34;;;9.90;83.51
28683;BME280;15862;43.062;25.626;2022-12-18T09:23:05;101458.03;;;9.83;83.18
28683;BME280;15862;43.062;25.626;2022-12-18T09:25:31;101440.16;;;9.60;86.41
28683;BME280;15862;43.062;25.626;2022-12-18T09:28:02;101446.59;;;9.88;86.78
28683;BME280;15862;43.062;25.626;2022-12-18T09:30:27;101462.44;;;9.81;86.07
28683;BME280;15862;43.062;25.626;2022-12-18T09:32:53;101453.34;;;9.72;86.29
28683;BME280;15862;43.062;25.626;2022-12-18T09:35:18;101464.09;;;9.82;81.53
28683;BME280;15862;43.062;25.626;2022-12-18T09:37:43;101455.88;;;9.92;83.59
28683;BME280;15862;43.062;25.626;2022-12-18T09:40:14;101465.97;;;9.96;83.17
28683;BME280;15862;43.062;25.626;2022-12-18T09:42:45;101465.03;;;9.81;75.25
28683;BME280;15862;43.062;25.626;2022-12-18T09:45:14;101461.25;;;9.69;73.79
28683;BME280;15862;43.062;25.626;2022-12-18T09:47:40;101457.31;;;9.61;78.36
28683;BME280;15862;43.062;25.626;2022-12-18T09:50:27;101469.81;;;9.70;76.58
28683;BME280;15862;43.062;25.626;2022-12-18T09:52:58;101466.53;;;9.66;77.50
28683;BME280;15862;43.062;25.626;2022-12-18T09:55:37;101473.03;;;9.75;77.51
28683;BME280;15862;43.062;25.626;2022-12-18T09:58:12;101476.78;;;9.68;75.61
28683;BME280;15862;43.062;25.626;2022-12-18T10:00:39;101477.50;;;9.89;76.81
28683;BME280;15862;43.062;25.626;2022-12-18T10:03:13;101469.09;;;10.04;73.88
28683;BME280;15862;43.062;25.626;2022-12-18T10:05:49;101470.16;;;10.36;72.55
28683;BME280;15862;43.062;25.626;2022-12-18T10:08:24;101477.59;;;10.60;75.72
28683;BME280;15862;43.062;25.626;2022-12-18T10:10:53;101469.16;;;10.57;70.03
28683;BME280;15862;43.062;25.626;2022-12-18T10:16:13;101472.88;;;11.02;67.01
28683;BME280;15862;43.062;25.626;2022-12-18T10:19:15;101473.28;;;11.27;71.36
28683;BME280;15862;43.062;25.626;2022-12-18T10:24:24;101471.38;;;11.47;63.65
28683;BME280;15862;43.062;25.626;2022-12-18T10:27:08;101447.06;;;11.17;63.89
28683;BME280;15862;43.062;25.626;2022-12-18T10:29:36;101474.97;;;11.28;62.65
28683;BME280;15862;43.062;25.626;2022-12-18T10:32:02;101473.34;;;11.10;67.07
28683;BME280;15862;43.062;25.626;2022-12-18T10:34:27;101471.78;;;11.23;63.40
28683;BME280;15862;43.062;25.626;2022-12-18T10:36:53;101458.03;;;11.22;66.08
28683;BME280;15862;43.062;25.626;2022-12-18T10:39:21;101454.59;;;11.05;68.52
28683;BME280;15862;43.062;25.626;2022-12-18T10:41:48;101459.16;;;11.34;65.63
28683;BME280;15862;43.062;25.626;2022-12-18T10:44:19;101466.47;;;10.92;66.58
28683;BME280;15862;43.062;25.626;2022-12-18T10:46:47;101470.16;;;10.88;67.60
28683;BME280;15862;43.062;25.626;2022-12-18T10:49:25;101480.50;;;10.88;67.77
28683;BME280;15862;43.062;25.626;2022-12-18T10:52:22;101453.59;;;10.75;70.11
28683;BME280;15862;43.062;25.626;2022-12-18T10:54:53;101467.03;;;10.98;69.77
28683;BME280;15862;43.062;25.626;2022-12-18T10:59:53;101457.00;;;10.92;67.61
28683;BME280;15862;43.062;25.626;2022-12-18T11:02:49;101467.25;;;10.77;71.20
28683;BME280;15862;43.062;25.626;2022-12-18T11:05:29;101475.16;;;10.74;72.39
28683;BME280;15862;43.062;25.626;2022-12-18T11:07:55;101480.56;;;10.69;73.40
28683;BME280;15862;43.062;25.626;2022-12-18T11:10:32;101475.28;;;10.54;69.54
28683;BME280;15862;43.062;25.626;2022-12-18T11:13:20;101477.91;;;10.88;67.53
28683;BME280;15862;43.062;25.626;2022-12-18T11:15:46;101472.66;;;11.06;69.79
28683;BME280;15862;43.062;25.626;2022-12-18T11:18:20;101477.44;;;11.14;64.11
28683;BME280;15862;43.062;25.626;2022-12-18T11:21:07;101459.56;;;11.09;63.40
28683;BME280;15862;43.062;25.626;2022-12-18T11:23:34;101482.13;;;11.40;64.81
28683;BME280;15862;43.062;25.626;2022-12-18T11:26:02;101483.16;;;11.85;63.21
28683;BME280;15862;43.062;25.626;2022-12-18T11:28:40;101481.66;;;11.96;58.76
28683;BME280;15862;43.062;25.626;2022-12-18T11:31:26;101482.22;;;11.70;58.74
28683;BME280;15862;43.062;25.626;2022-12-18T11:36:42;101476.78;;;11.59;57.55
28683;BME280;15862;43.062;25.626;2022-12-18T11:39:38;101478.44;;;11.60;61.58
28683;BME280;15862;43.062;25.626;2022-12-18T11:42:12;101483.34;;;11.33;59.52
28683;BME280;15862;43.062;25.626;2022-12-18T11:44:45;101469.97;;;10.91;61.12
28683;BME280;15862;43.062;25.626;2022-12-18T11:47:59;101488.44;;;10.66;64.61
28683;BME280;15862;43.062;25.626;2022-12-18T11:50:01;101491.41;;;10.59;64.06
28683;BME280;15862;43.062;25.626;2022-12-18T11:52:39;101486.59;;;10.52;64.67
28683;BME280;15862;43.062;25.626;2022-12-18T11:58:07;101489.69;;;10.41;64.40
28683;BME280;15862;43.062;25.626;2022-12-18T12:01:05;101491.16;;;10.47;62.62
28683;BME280;15862;43.062;25.626;2022-12-18T12:03:43;101477.41;;;10.46;62.68
28683;BME280;15862;43.062;25.626;2022-12-18T12:06:35;101500.41;;;10.15;67.38
28683;BME280;15862;43.062;25.626;2022-12-18T12:09:28;101496.44;;;10.08;66.87
28683;BME280;15862;43.062;25.626;2022-12-18T12:17:35;101505.72;;;9.56;70.14
28683;BME280;15862;43.062;25.626;2022-12-18T12:23:38;101512.31;;;9.23;74.21
28683;BME280;15862;43.062;25.626;2022-12-18T12:26:32;101520.16;;;9.40;72.68
28683;BME280;15862;43.062;25.626;2022-12-18T12:38:12;101507.16;;;9.03;76.40
28683;BME280;15862;43.062;25.626;2022-12-18T12:40:47;101514.63;;;9.09;75.63
28683;BME280;15862;43.062;25.626;2022-12-18T12:43:46;101514.97;;;9.02;78.24
28683;BME280;15862;43.062;25.626;2022-12-18T12:46:16;101520.03;;;9.03;79.19
28683;BME280;15862;43.062;25.626;2022-12-18T12:48:55;101525.72;;;9.11;78.82
28683;BME280;15862;43.062;25.626;2022-12-18T12:51:25;101527.31;;;9.13;75.95
28683;BME280;15862;43.062;25.626;2022-12-18T12:53:52;101524.22;;;8.86;77.50
28683;BME280;15862;43.062;25.626;2022-12-18T12:56:20;101522.56;;;8.63;78.30
28683;BME280;15862;43.062;25.626;2022-12-18T12:58:52;101540.22;;;8.72;79.14
28683;BME280;15862;43.062;25.626;2022-12-18T13:01:32;101542.38;;;8.83;78.47
28683;BME280;15862;43.062;25.626;2022-12-18T13:04:23;101550.94;;;8.83;77.63
28683;BME280;15862;43.062;25.626;2022-12-18T13:07:15;101558.63;;;8.63;77.68
28683;BME280;15862;43.062;25.626;2022-12-18T13:10:14;101559.53;;;8.62;77.32
28683;BME280;15862;43.062;25.626;2022-12-18T13:13:08;101567.34;;;8.59;78.25
28683;BME280;15862;43.062;25.626;2022-12-18T13:15:37;101544.31;;;8.56;78.05
28683;BME280;15862;43.062;25.626;2022-12-18T13:20:43;101572.66;;;8.56;77.41
28683;BME280;15862;43.062;25.626;2022-12-18T13:23:39;101571.41;;;8.43;79.75
28683;BME280;15862;43.062;25.626;2022-12-18T13:30:59;101585.00;;;8.26;80.07
28683;BME280;15862;43.062;25.626;2022-12-18T13:36:09;101588.88;;;8.13;81.11
28683;BME280;15862;43.062;25.626;2022-12-18T13:38:38;101592.97;;;8.18;81.18
28683;BME280;15862;43.062;25.626;2022-12-18T13:41:26;101590.56;;;8.14;82.68
28683;BME280;15862;43.062;25.626;2022-12-18T13:43:55;101594.78;;;8.16;82.14
28683;BME280;15862;43.062;25.626;2022-12-18T13:49:06;101593.50;;;8.03;83.34
28683;BME280;15862;43.062;25.626;2022-12-18T13:51:46;101602.97;;;8.03;85.38
28683;BME280;15862;43.062;25.626;2022-12-18T13:54:52;101601.28;;;8.02;84.86
28683;BME280;15862;43.062;25.626;2022-12-18T13:59:54;101588.97;;;7.87;87.15
28683;BME280;15862;43.062;25.626;2022-12-18T14:02:22;101601.00;;;7.86;87.09
28683;BME280;15862;43.062;25.626;2022-12-18T14:04:49;101598.13;;;7.71;87.81
28683;BME280;15862;43.062;25.626;2022-12-18T14:07:32;101593.41;;;7.59;89.92
28683;BME280;15862;43.062;25.626;2022-12-18T14:09:59;101601.53;;;7.71;88.99
28683;BME280;15862;43.062;25.626;2022-12-18T14:12:33;101605.16;;;7.66;90.44
28683;BME280;15862;43.062;25.626;2022-12-18T14:17:55;101607.84;;;7.63;92.76
28683;BME280;15862;43.062;25.626;2022-12-18T14:20:23;101620.00;;;7.58;92.72
28683;BME280;15862;43.062;25.626;2022-12-18T14:22:50;101621.69;;;7.59;91.67
28683;BME280;15862;43.062;25.626;2022-12-18T14:25:22;101614.91;;;7.57;92.50